CheckWX is a tool to help pilots better visualize weather data.  It is not intended as a substitute for an official pre-flight weather briefing.

17:16:58 UTC

FALA TAF
Lanseria Airport
Johannesburg, South Africa
TAF FALA 181000Z 1812/1912 33010KT CAVOK TX25/1912Z TN09/1904Z BECMG 1819/1821 23005KT BECMG 1904/1906 VRB03KT BECMG 1910/1912 SCT040

Aug-18@
12:00 UTC

Aug-18 @ 12:00 UTC

Aug-18@
19:00 UTC

Aug-18 @ 19:00 UTC

TAF FALA 181000Z 1812/1912 33010KT CAVOK TX25/1912Z TN09/1904Z
Wind
  • 330° at 10 KTS
Cloud Levels
  • No significant clouds

Aug-18@
19:00 UTC

Aug-18 @ 19:00 UTC

Aug-19@
04:00 UTC

Aug-19 @ 04:00 UTC

BECMG 1819/1821 23005KT

Becoming

Becoming Conditions expected by Sun, Aug 18, 2019 @ 21:00 UTC

Wind
  • 230° at 5 KTS
Cloud Levels
  • No significant clouds

Aug-19@
04:00 UTC

Aug-19 @ 04:00 UTC

Aug-19@
10:00 UTC

Aug-19 @ 10:00 UTC

BECMG 1904/1906 VRB03KT

Becoming

Becoming Conditions expected by Mon, Aug 19, 2019 @ 06:00 UTC

Wind
  • Variable at 3 KTS
Cloud Levels
  • No significant clouds

Aug-19@
10:00 UTC

Aug-19 @ 10:00 UTC

Aug-19@
12:00 UTC

Aug-19 @ 12:00 UTC

BECMG 1910/1912 SCT040

Becoming

Becoming Conditions expected by Mon, Aug 19, 2019 @ 12:00 UTC

Wind
  • Variable at 3 KTS
Cloud Levels
  • Scattered at 4,000' AGL